sensor_id;sensor_type;location;lat;lon;timestamp;P1;durP1;ratioP1;P2;durP2;ratioP2
20557;SDS011;10437;48.156;11.530;2023-02-08T00:01:52;17.30;;;6.60;;
20557;SDS011;10437;48.156;11.530;2023-02-08T00:04:19;17.40;;;6.57;;
20557;SDS011;10437;48.156;11.530;2023-02-08T00:06:46;15.47;;;6.47;;
20557;SDS011;10437;48.156;11.530;2023-02-08T00:09:13;18.00;;;7.53;;
20557;SDS011;10437;48.156;11.530;2023-02-08T00:11:42;14.67;;;6.83;;
20557;SDS011;10437;48.156;11.530;2023-02-08T00:14:09;18.87;;;6.93;;
20557;SDS011;10437;48.156;11.530;2023-02-08T00:16:36;18.63;;;7.37;;
20557;SDS011;10437;48.156;11.530;2023-02-08T00:19:03;20.60;;;7.93;;
20557;SDS011;10437;48.156;11.530;2023-02-08T00:21:30;18.07;;;7.37;;
20557;SDS011;10437;48.156;11.530;2023-02-08T00:23:58;19.13;;;8.00;;
20557;SDS011;10437;48.156;11.530;2023-02-08T00:26:25;15.17;;;6.87;;
20557;SDS011;10437;48.156;11.530;2023-02-08T00:28:53;14.67;;;6.70;;
20557;SDS011;10437;48.156;11.530;2023-02-08T00:31:20;19.93;;;7.43;;
20557;SDS011;10437;48.156;11.530;2023-02-08T00:33:48;18.00;;;6.90;;
20557;SDS011;10437;48.156;11.530;2023-02-08T00:36:15;18.27;;;7.70;;
20557;SDS011;10437;48.156;11.530;2023-02-08T00:38:42;20.87;;;7.63;;
20557;SDS011;10437;48.156;11.530;2023-02-08T00:41:09;25.57;;;8.03;;
20557;SDS011;10437;48.156;11.530;2023-02-08T00:43:36;18.67;;;7.20;;
20557;SDS011;10437;48.156;11.530;2023-02-08T00:46:05;17.07;;;7.57;;
20557;SDS011;10437;48.156;11.530;2023-02-08T00:48:33;18.83;;;7.27;;
20557;SDS011;10437;48.156;11.530;2023-02-08T00:51:01;18.93;;;7.60;;
20557;SDS011;10437;48.156;11.530;2023-02-08T00:53:28;19.53;;;7.97;;
20557;SDS011;10437;48.156;11.530;2023-02-08T00:55:56;20.60;;;7.73;;
20557;SDS011;10437;48.156;11.530;2023-02-08T00:58:23;17.77;;;7.10;;
20557;SDS011;10437;48.156;11.530;2023-02-08T01:00:50;19.57;;;7.77;;
20557;SDS011;10437;48.156;11.530;2023-02-08T01:03:19;18.87;;;7.77;;
20557;SDS011;10437;48.156;11.530;2023-02-08T01:05:47;16.83;;;7.27;;
20557;SDS011;10437;48.156;11.530;2023-02-08T01:08:14;19.87;;;7.83;;
20557;SDS011;10437;48.156;11.530;2023-02-08T01:10:41;17.90;;;7.93;;
20557;SDS011;10437;48.156;11.530;2023-02-08T01:13:08;17.17;;;6.57;;
20557;SDS011;10437;48.156;11.530;2023-02-08T01:15:35;20.37;;;7.60;;
20557;SDS011;10437;48.156;11.530;2023-02-08T01:18:03;20.37;;;7.13;;
20557;SDS011;10437;48.156;11.530;2023-02-08T01:20:33;17.30;;;6.60;;
20557;SDS011;10437;48.156;11.530;2023-02-08T01:23:00;17.03;;;7.00;;
20557;SDS011;10437;48.156;11.530;2023-02-08T01:25:27;17.27;;;7.27;;
20557;SDS011;10437;48.156;11.530;2023-02-08T01:27:54;16.63;;;6.97;;
20557;SDS011;10437;48.156;11.530;2023-02-08T01:30:21;19.43;;;7.53;;
20557;SDS011;10437;48.156;11.530;2023-02-08T01:32:48;16.60;;;7.23;;
20557;SDS011;10437;48.156;11.530;2023-02-08T01:35:16;20.63;;;7.70;;
20557;SDS011;10437;48.156;11.530;2023-02-08T01:37:44;18.27;;;7.20;;
20557;SDS011;10437;48.156;11.530;2023-02-08T01:40:11;20.33;;;7.50;;
20557;SDS011;10437;48.156;11.530;2023-02-08T01:42:38;18.63;;;8.20;;
20557;SDS011;10437;48.156;11.530;2023-02-08T01:47:55;18.63;;;7.13;;
20557;SDS011;10437;48.156;11.530;2023-02-08T01:50:28;18.97;;;7.37;;
20557;SDS011;10437;48.156;11.530;2023-02-08T01:52:59;17.20;;;8.03;;
20557;SDS011;10437;48.156;11.530;2023-02-08T01:55:27;14.63;;;6.87;;
20557;SDS011;10437;48.156;11.530;2023-02-08T01:57:56;20.10;;;7.70;;
20557;SDS011;10437;48.156;11.530;2023-02-08T02:00:25;22.00;;;8.30;;
20557;SDS011;10437;48.156;11.530;2023-02-08T02:02:52;17.63;;;7.50;;
20557;SDS011;10437;48.156;11.530;2023-02-08T02:05:21;17.77;;;8.10;;
20557;SDS011;10437;48.156;11.530;2023-02-08T02:07:49;19.83;;;8.07;;
20557;SDS011;10437;48.156;11.530;2023-02-08T02:10:22;18.73;;;8.03;;
20557;SDS011;10437;48.156;11.530;2023-02-08T02:12:52;21.07;;;7.60;;
20557;SDS011;10437;48.156;11.530;2023-02-08T02:15:20;18.17;;;8.23;;
20557;SDS011;10437;48.156;11.530;2023-02-08T02:17:47;22.00;;;8.33;;
20557;SDS011;10437;48.156;11.530;2023-02-08T02:20:16;17.57;;;8.10;;
20557;SDS011;10437;48.156;11.530;2023-02-08T02:22:55;20.63;;;8.40;;
20557;SDS011;10437;48.156;11.530;2023-02-08T02:25:31;21.43;;;7.60;;
20557;SDS011;10437;48.156;11.530;2023-02-08T02:28:08;20.70;;;8.10;;
20557;SDS011;10437;48.156;11.530;2023-02-08T02:31:01;23.37;;;8.33;;
20557;SDS011;10437;48.156;11.530;2023-02-08T02:33:53;20.73;;;8.33;;
20557;SDS011;10437;48.156;11.530;2023-02-08T02:36:27;22.53;;;9.17;;
20557;SDS011;10437;48.156;11.530;2023-02-08T02:38:59;20.50;;;8.50;;
20557;SDS011;10437;48.156;11.530;2023-02-08T02:41:33;22.47;;;8.67;;
20557;SDS011;10437;48.156;11.530;2023-02-08T02:44:27;19.93;;;8.53;;
20557;SDS011;10437;48.156;11.530;2023-02-08T02:46:58;20.70;;;8.20;;
20557;SDS011;10437;48.156;11.530;2023-02-08T02:49:33;19.20;;;8.07;;
20557;SDS011;10437;48.156;11.530;2023-02-08T02:52:03;21.10;;;8.37;;
20557;SDS011;10437;48.156;11.530;2023-02-08T02:54:32;21.77;;;8.93;;
20557;SDS011;10437;48.156;11.530;2023-02-08T02:57:05;22.33;;;7.60;;
20557;SDS011;10437;48.156;11.530;2023-02-08T02:59:36;21.93;;;8.10;;
20557;SDS011;10437;48.156;11.530;2023-02-08T03:02:04;24.47;;;7.70;;
20557;SDS011;10437;48.156;11.530;2023-02-08T03:04:49;20.53;;;7.53;;
20557;SDS011;10437;48.156;11.530;2023-02-08T03:07:20;19.13;;;8.60;;
20557;SDS011;10437;48.156;11.530;2023-02-08T03:09:51;17.27;;;7.50;;
20557;SDS011;10437;48.156;11.530;2023-02-08T03:12:29;17.87;;;7.73;;
20557;SDS011;10437;48.156;11.530;2023-02-08T03:15:05;21.70;;;7.67;;
20557;SDS011;10437;48.156;11.530;2023-02-08T03:17:42;19.57;;;8.20;;
20557;SDS011;10437;48.156;11.530;2023-02-08T03:20:17;21.23;;;8.03;;
20557;SDS011;10437;48.156;11.530;2023-02-08T03:22:51;22.03;;;8.00;;
20557;SDS011;10437;48.156;11.530;2023-02-08T03:25:22;20.07;;;8.53;;
20557;SDS011;10437;48.156;11.530;2023-02-08T03:27:54;19.50;;;8.13;;
20557;SDS011;10437;48.156;11.530;2023-02-08T03:30:27;20.53;;;8.37;;
20557;SDS011;10437;48.156;11.530;2023-02-08T03:32:59;21.63;;;8.80;;
20557;SDS011;10437;48.156;11.530;2023-02-08T03:35:32;22.57;;;8.57;;
20557;SDS011;10437;48.156;11.530;2023-02-08T03:38:02;18.33;;;7.40;;
20557;SDS011;10437;48.156;11.530;2023-02-08T03:40:34;26.37;;;8.40;;
20557;SDS011;10437;48.156;11.530;2023-02-08T03:43:03;22.20;;;8.43;;
20557;SDS011;10437;48.156;11.530;2023-02-08T03:45:34;20.93;;;8.67;;
20557;SDS011;10437;48.156;11.530;2023-02-08T03:48:05;23.53;;;8.93;;
20557;SDS011;10437;48.156;11.530;2023-02-08T03:50:36;20.93;;;8.30;;
20557;SDS011;10437;48.156;11.530;2023-02-08T03:53:05;23.57;;;8.93;;
20557;SDS011;10437;48.156;11.530;2023-02-08T03:55:35;23.97;;;8.30;;
20557;SDS011;10437;48.156;11.530;2023-02-08T03:58:04;22.43;;;9.03;;
20557;SDS011;10437;48.156;11.530;2023-02-08T04:00:33;21.70;;;8.77;;
20557;SDS011;10437;48.156;11.530;2023-02-08T04:03:01;18.87;;;7.90;;
20557;SDS011;10437;48.156;11.530;2023-02-08T04:05:30;19.57;;;8.93;;
20557;SDS011;10437;48.156;11.530;2023-02-08T04:07:59;22.37;;;8.20;;
20557;SDS011;10437;48.156;11.530;2023-02-08T04:10:27;21.33;;;8.47;;
20557;SDS011;10437;48.156;11.530;2023-02-08T04:12:54;18.27;;;7.87;;
20557;SDS011;10437;48.156;11.530;2023-02-08T04:15:21;18.27;;;8.07;;
20557;SDS011;10437;48.156;11.530;2023-02-08T04:17:51;20.53;;;8.23;;
20557;SDS011;10437;48.156;11.530;2023-02-08T04:20:18;21.43;;;9.00;;
20557;SDS011;10437;48.156;11.530;2023-02-08T04:22:45;22.70;;;8.53;;
20557;SDS011;10437;48.156;11.530;2023-02-08T04:25:14;26.63;;;9.33;;
20557;SDS011;10437;48.156;11.530;2023-02-08T04:27:41;23.77;;;8.97;;
20557;SDS011;10437;48.156;11.530;2023-02-08T04:30:08;20.53;;;8.13;;
20557;SDS011;10437;48.156;11.530;2023-02-08T04:32:35;25.37;;;8.67;;
20557;SDS011;10437;48.156;11.530;2023-02-08T04:35:03;21.73;;;9.23;;
20557;SDS011;10437;48.156;11.530;2023-02-08T04:37:30;20.47;;;8.77;;
20557;SDS011;10437;48.156;11.530;2023-02-08T04:39:57;19.90;;;8.27;;
20557;SDS011;10437;48.156;11.530;2023-02-08T04:42:26;19.73;;;8.83;;
20557;SDS011;10437;48.156;11.530;2023-02-08T04:44:54;22.73;;;8.67;;
20557;SDS011;10437;48.156;11.530;2023-02-08T04:47:21;22.43;;;8.73;;
20557;SDS011;10437;48.156;11.530;2023-02-08T04:49:48;25.77;;;9.33;;
20557;SDS011;10437;48.156;11.530;2023-02-08T04:52:15;22.60;;;8.77;;
20557;SDS011;10437;48.156;11.530;2023-02-08T04:54:43;22.60;;;8.87;;
20557;SDS011;10437;48.156;11.530;2023-02-08T04:57:10;26.57;;;9.23;;
20557;SDS011;10437;48.156;11.530;2023-02-08T04:59:39;24.50;;;8.60;;
20557;SDS011;10437;48.156;11.530;2023-02-08T05:02:07;28.80;;;8.97;;
20557;SDS011;10437;48.156;11.530;2023-02-08T05:04:34;20.10;;;9.10;;
20557;SDS011;10437;48.156;11.530;2023-02-08T05:07:01;21.43;;;8.93;;
20557;SDS011;10437;48.156;11.530;2023-02-08T05:09:28;26.60;;;9.13;;
20557;SDS011;10437;48.156;11.530;2023-02-08T05:11:55;21.43;;;8.77;;
20557;SDS011;10437;48.156;11.530;2023-02-08T05:14:22;29.30;;;9.40;;
20557;SDS011;10437;48.156;11.530;2023-02-08T05:16:51;23.30;;;9.13;;
20557;SDS011;10437;48.156;11.530;2023-02-08T05:19:18;29.07;;;9.97;;
20557;SDS011;10437;48.156;11.530;2023-02-08T05:21:45;25.40;;;8.87;;
20557;SDS011;10437;48.156;11.530;2023-02-08T05:24:12;23.33;;;8.73;;
20557;SDS011;10437;48.156;11.530;2023-02-08T05:26:40;25.87;;;9.50;;
20557;SDS011;10437;48.156;11.530;2023-02-08T05:29:07;27.73;;;9.27;;
20557;SDS011;10437;48.156;11.530;2023-02-08T05:31:34;21.97;;;8.87;;
20557;SDS011;10437;48.156;11.530;2023-02-08T05:34:03;26.50;;;9.27;;
20557;SDS011;10437;48.156;11.530;2023-02-08T05:36:30;22.23;;;9.40;;
20557;SDS011;10437;48.156;11.530;2023-02-08T05:38:57;25.20;;;8.87;;
20557;SDS011;10437;48.156;11.530;2023-02-08T05:41:24;23.07;;;9.77;;
20557;SDS011;10437;48.156;11.530;2023-02-08T05:43:51;22.33;;;9.57;;
20557;SDS011;10437;48.156;11.530;2023-02-08T05:46:18;25.73;;;9.90;;
20557;SDS011;10437;48.156;11.530;2023-02-08T05:48:45;26.90;;;10.30;;
20557;SDS011;10437;48.156;11.530;2023-02-08T05:51:14;24.67;;;9.53;;
20557;SDS011;10437;48.156;11.530;2023-02-08T05:53:41;25.67;;;8.67;;
20557;SDS011;10437;48.156;11.530;2023-02-08T05:56:09;24.60;;;9.50;;
20557;SDS011;10437;48.156;11.530;2023-02-08T05:58:36;23.37;;;9.70;;
20557;SDS011;10437;48.156;11.530;2023-02-08T06:01:06;25.00;;;9.37;;
20557;SDS011;10437;48.156;11.530;2023-02-08T06:03:34;24.33;;;9.60;;
20557;SDS011;10437;48.156;11.530;2023-02-08T06:06:01;23.27;;;9.83;;
20557;SDS011;10437;48.156;11.530;2023-02-08T06:08:29;23.97;;;9.93;;
20557;SDS011;10437;48.156;11.530;2023-02-08T06:10:57;22.53;;;9.30;;
20557;SDS011;10437;48.156;11.530;2023-02-08T06:13:24;27.17;;;9.60;;
20557;SDS011;10437;48.156;11.530;2023-02-08T06:15:53;25.10;;;9.77;;
20557;SDS011;10437;48.156;11.530;2023-02-08T06:18:20;24.90;;;10.33;;
20557;SDS011;10437;48.156;11.530;2023-02-08T06:20:47;25.50;;;10.47;;
20557;SDS011;10437;48.156;11.530;2023-02-08T06:23:14;22.97;;;9.93;;
20557;SDS011;10437;48.156;11.530;2023-02-08T06:25:43;29.40;;;10.47;;
20557;SDS011;10437;48.156;11.530;2023-02-08T06:28:09;28.80;;;10.80;;
20557;SDS011;10437;48.156;11.530;2023-02-08T06:30:37;29.87;;;10.57;;
20557;SDS011;10437;48.156;11.530;2023-02-08T06:33:04;26.47;;;10.50;;
20557;SDS011;10437;48.156;11.530;2023-02-08T06:35:31;27.63;;;10.33;;
20557;SDS011;10437;48.156;11.530;2023-02-08T06:37:58;33.57;;;11.23;;
20557;SDS011;10437;48.156;11.530;2023-02-08T06:40:25;25.03;;;10.60;;
20557;SDS011;10437;48.156;11.530;2023-02-08T06:42:54;26.90;;;10.83;;
20557;SDS011;10437;48.156;11.530;2023-02-08T06:45:21;26.70;;;10.27;;
20557;SDS011;10437;48.156;11.530;2023-02-08T06:47:48;23.83;;;10.13;;
20557;SDS011;10437;48.156;11.530;2023-02-08T06:50:16;25.77;;;10.30;;
20557;SDS011;10437;48.156;11.530;2023-02-08T06:52:43;26.03;;;10.60;;
20557;SDS011;10437;48.156;11.530;2023-02-08T06:55:10;28.80;;;11.13;;
20557;SDS011;10437;48.156;11.530;2023-02-08T06:57:37;27.50;;;10.83;;
20557;SDS011;10437;48.156;11.530;2023-02-08T07:00:06;23.70;;;10.13;;
20557;SDS011;10437;48.156;11.530;2023-02-08T07:02:33;26.80;;;11.00;;
20557;SDS011;10437;48.156;11.530;2023-02-08T07:05:00;24.63;;;10.00;;
20557;SDS011;10437;48.156;11.530;2023-02-08T07:07:27;29.67;;;10.63;;
20557;SDS011;10437;48.156;11.530;2023-02-08T07:09:55;30.70;;;11.07;;
20557;SDS011;10437;48.156;11.530;2023-02-08T07:12:22;25.90;;;10.47;;
20557;SDS011;10437;48.156;11.530;2023-02-08T07:14:49;29.23;;;10.87;;
20557;SDS011;10437;48.156;11.530;2023-02-08T07:17:17;25.90;;;10.97;;
20557;SDS011;10437;48.156;11.530;2023-02-08T07:19:44;26.17;;;10.60;;
20557;SDS011;10437;48.156;11.530;2023-02-08T07:22:11;25.90;;;11.50;;
20557;SDS011;10437;48.156;11.530;2023-02-08T07:24:39;26.70;;;10.50;;
20557;SDS011;10437;48.156;11.530;2023-02-08T07:27:07;29.63;;;11.23;;
20557;SDS011;10437;48.156;11.530;2023-02-08T07:29:35;26.37;;;10.43;;
20557;SDS011;10437;48.156;11.530;2023-02-08T07:32:02;27.47;;;11.30;;
20557;SDS011;10437;48.156;11.530;2023-02-08T07:34:32;33.30;;;11.77;;
20557;SDS011;10437;48.156;11.530;2023-02-08T07:36:59;28.23;;;10.77;;
20557;SDS011;10437;48.156;11.530;2023-02-08T07:39:26;22.93;;;9.87;;
20557;SDS011;10437;48.156;11.530;2023-02-08T07:41:55;30.77;;;10.80;;
20557;SDS011;10437;48.156;11.530;2023-02-08T07:44:22;33.97;;;10.90;;
20557;SDS011;10437;48.156;11.530;2023-02-08T07:46:49;29.97;;;10.90;;
20557;SDS011;10437;48.156;11.530;2023-02-08T07:49:17;30.73;;;11.23;;
20557;SDS011;10437;48.156;11.530;2023-02-08T07:51:45;31.33;;;10.90;;
20557;SDS011;10437;48.156;11.530;2023-02-08T07:54:12;31.60;;;11.37;;
20557;SDS011;10437;48.156;11.530;2023-02-08T07:56:39;30.00;;;10.93;;
20557;SDS011;10437;48.156;11.530;2023-02-08T07:59:06;27.87;;;11.67;;
20557;SDS011;10437;48.156;11.530;2023-02-08T08:01:33;33.13;;;11.20;;
20557;SDS011;10437;48.156;11.530;2023-02-08T08:04:00;27.67;;;11.47;;
20557;SDS011;10437;48.156;11.530;2023-02-08T08:06:27;26.90;;;11.07;;
20557;SDS011;10437;48.156;11.530;2023-02-08T08:08:56;23.97;;;10.33;;
20557;SDS011;10437;48.156;11.530;2023-02-08T08:11:23;30.40;;;10.70;;
20557;SDS011;10437;48.156;11.530;2023-02-08T08:13:50;25.00;;;10.47;;
20557;SDS011;10437;48.156;11.530;2023-02-08T08:16:17;27.27;;;10.70;;
20557;SDS011;10437;48.156;11.530;2023-02-08T08:18:45;21.13;;;10.37;;
20557;SDS011;10437;48.156;11.530;2023-02-08T08:21:12;25.23;;;10.83;;
20557;SDS011;10437;48.156;11.530;2023-02-08T08:23:40;28.17;;;10.43;;
20557;SDS011;10437;48.156;11.530;2023-02-08T08:26:10;23.50;;;10.57;;
20557;SDS011;10437;48.156;11.530;2023-02-08T08:28:39;24.53;;;9.83;;
20557;SDS011;10437;48.156;11.530;2023-02-08T08:31:09;20.73;;;9.53;;
20557;SDS011;10437;48.156;11.530;2023-02-08T08:33:37;25.23;;;10.17;;
20557;SDS011;10437;48.156;11.530;2023-02-08T08:36:04;26.40;;;11.13;;
20557;SDS011;10437;48.156;11.530;2023-02-08T08:38:32;25.03;;;10.13;;
20557;SDS011;10437;48.156;11.530;2023-02-08T08:40:59;24.03;;;9.90;;
20557;SDS011;10437;48.156;11.530;2023-02-08T08:43:27;26.50;;;10.60;;
20557;SDS011;10437;48.156;11.530;2023-02-08T08:45:54;24.90;;;10.13;;
20557;SDS011;10437;48.156;11.530;2023-02-08T08:48:21;27.70;;;11.13;;
20557;SDS011;10437;48.156;11.530;2023-02-08T08:50:48;27.53;;;10.77;;
20557;SDS011;10437;48.156;11.530;2023-02-08T08:53:15;22.70;;;10.20;;
20557;SDS011;10437;48.156;11.530;2023-02-08T08:55:43;28.73;;;10.97;;
20557;SDS011;10437;48.156;11.530;2023-02-08T08:58:10;20.57;;;9.30;;
20557;SDS011;10437;48.156;11.530;2023-02-08T09:00:38;26.07;;;9.77;;
20557;SDS011;10437;48.156;11.530;2023-02-08T09:03:06;23.73;;;9.43;;
20557;SDS011;10437;48.156;11.530;2023-02-08T09:05:33;25.77;;;9.37;;
20557;SDS011;10437;48.156;11.530;2023-02-08T09:08:00;21.67;;;9.47;;
20557;SDS011;10437;48.156;11.530;2023-02-08T09:10:28;21.37;;;9.63;;
20557;SDS011;10437;48.156;11.530;2023-02-08T09:12:55;22.93;;;9.97;;
20557;SDS011;10437;48.156;11.530;2023-02-08T09:15:22;26.50;;;10.33;;
20557;SDS011;10437;48.156;11.530;2023-02-08T09:17:50;26.47;;;10.13;;
20557;SDS011;10437;48.156;11.530;2023-02-08T09:20:17;24.73;;;10.30;;
20557;SDS011;10437;48.156;11.530;2023-02-08T09:22:45;25.73;;;9.80;;
20557;SDS011;10437;48.156;11.530;2023-02-08T09:25:12;23.20;;;10.33;;
20557;SDS011;10437;48.156;11.530;2023-02-08T09:27:39;20.77;;;10.17;;
20557;SDS011;10437;48.156;11.530;2023-02-08T09:30:07;27.53;;;11.20;;
20557;SDS011;10437;48.156;11.530;2023-02-08T09:32:35;24.53;;;10.60;;
20557;SDS011;10437;48.156;11.530;2023-02-08T09:35:05;22.50;;;10.43;;
20557;SDS011;10437;48.156;11.530;2023-02-08T09:37:33;26.00;;;11.00;;
20557;SDS011;10437;48.156;11.530;2023-02-08T09:40:00;28.40;;;10.80;;
20557;SDS011;10437;48.156;11.530;2023-02-08T09:42:28;21.50;;;9.97;;
20557;SDS011;10437;48.156;11.530;2023-02-08T09:45:03;25.00;;;10.80;;
20557;SDS011;10437;48.156;11.530;2023-02-08T09:47:46;25.57;;;11.33;;
20557;SDS011;10437;48.156;11.530;2023-02-08T09:50:22;26.23;;;10.80;;
20557;SDS011;10437;48.156;11.530;2023-02-08T09:52:59;26.47;;;11.20;;
20557;SDS011;10437;48.156;11.530;2023-02-08T09:55:33;21.93;;;10.10;;
20557;SDS011;10437;48.156;11.530;2023-02-08T09:58:02;24.83;;;10.77;;
20557;SDS011;10437;48.156;11.530;2023-02-08T10:00:33;23.23;;;10.23;;
20557;SDS011;10437;48.156;11.530;2023-02-08T10:03:03;26.37;;;11.33;;
20557;SDS011;10437;48.156;11.530;2023-02-08T10:05:32;25.33;;;11.00;;
20557;SDS011;10437;48.156;11.530;2023-02-08T10:07:59;25.40;;;10.70;;
20557;SDS011;10437;48.156;11.530;2023-02-08T10:10:30;23.33;;;10.60;;
20557;SDS011;10437;48.156;11.530;2023-02-08T10:13:07;24.20;;;11.03;;
20557;SDS011;10437;48.156;11.530;2023-02-08T10:15:46;29.57;;;10.63;;
20557;SDS011;10437;48.156;11.530;2023-02-08T10:18:28;25.63;;;10.93;;
20557;SDS011;10437;48.156;11.530;2023-02-08T10:21:16;20.73;;;9.77;;
20557;SDS011;10437;48.156;11.530;2023-02-08T10:26:48;29.30;;;10.20;;
20557;SDS011;10437;48.156;11.530;2023-02-08T10:29:26;24.40;;;10.70;;
20557;SDS011;10437;48.156;11.530;2023-02-08T10:32:19;21.53;;;9.83;;
20557;SDS011;10437;48.156;11.530;2023-02-08T10:34:59;24.40;;;10.30;;
20557;SDS011;10437;48.156;11.530;2023-02-08T10:37:31;22.63;;;10.50;;
20557;SDS011;10437;48.156;11.530;2023-02-08T10:40:02;23.07;;;9.73;;
20557;SDS011;10437;48.156;11.530;2023-02-08T10:42:41;23.93;;;9.80;;
20557;SDS011;10437;48.156;11.530;2023-02-08T10:45:14;22.23;;;9.97;;
20557;SDS011;10437;48.156;11.530;2023-02-08T10:47:47;24.50;;;10.63;;
20557;SDS011;10437;48.156;11.530;2023-02-08T10:50:18;21.60;;;9.47;;
20557;SDS011;10437;48.156;11.530;2023-02-08T10:52:50;25.00;;;10.40;;
20557;SDS011;10437;48.156;11.530;2023-02-08T10:55:18;26.33;;;10.67;;
20557;SDS011;10437;48.156;11.530;2023-02-08T10:57:46;20.60;;;10.03;;
20557;SDS011;10437;48.156;11.530;2023-02-08T11:00:16;24.67;;;10.37;;
20557;SDS011;10437;48.156;11.530;2023-02-08T11:02:44;25.07;;;10.30;;
20557;SDS011;10437;48.156;11.530;2023-02-08T11:05:14;21.77;;;10.43;;
20557;SDS011;10437;48.156;11.530;2023-02-08T11:07:44;21.80;;;9.97;;
20557;SDS011;10437;48.156;11.530;2023-02-08T11:10:20;23.13;;;9.73;;
20557;SDS011;10437;48.156;11.530;2023-02-08T11:12:55;20.83;;;10.23;;
20557;SDS011;10437;48.156;11.530;2023-02-08T11:15:24;22.37;;;10.00;;
20557;SDS011;10437;48.156;11.530;2023-02-08T11:17:56;19.63;;;9.87;;
20557;SDS011;10437;48.156;11.530;2023-02-08T11:20:27;25.13;;;10.43;;
20557;SDS011;10437;48.156;11.530;2023-02-08T11:22:58;21.40;;;10.50;;
20557;SDS011;10437;48.156;11.530;2023-02-08T11:25:31;25.43;;;10.53;;
20557;SDS011;10437;48.156;11.530;2023-02-08T11:27:59;23.80;;;10.77;;
20557;SDS011;10437;48.156;11.530;2023-02-08T11:30:27;21.37;;;10.37;;
20557;SDS011;10437;48.156;11.530;2023-02-08T11:35:53;23.57;;;10.63;;
20557;SDS011;10437;48.156;11.530;2023-02-08T11:38:23;22.60;;;10.80;;
20557;SDS011;10437;48.156;11.530;2023-02-08T11:40:53;23.07;;;10.90;;
20557;SDS011;10437;48.156;11.530;2023-02-08T11:43:24;29.27;;;11.77;;
20557;SDS011;10437;48.156;11.530;2023-02-08T11:45:53;27.73;;;12.33;;
20557;SDS011;10437;48.156;11.530;2023-02-08T11:48:23;30.17;;;11.93;;
20557;SDS011;10437;48.156;11.530;2023-02-08T11:50:57;29.10;;;11.43;;
20557;SDS011;10437;48.156;11.530;2023-02-08T11:53:26;24.03;;;11.73;;
20557;SDS011;10437;48.156;11.530;2023-02-08T11:56:02;27.77;;;11.47;;
20557;SDS011;10437;48.156;11.530;2023-02-08T11:58:30;26.30;;;11.20;;
20557;SDS011;10437;48.156;11.530;2023-02-08T12:00:58;27.50;;;11.90;;
20557;SDS011;10437;48.156;11.530;2023-02-08T12:03:26;25.83;;;11.90;;
20557;SDS011;10437;48.156;11.530;2023-02-08T12:06:01;25.50;;;11.97;;
20557;SDS011;10437;48.156;11.530;2023-02-08T12:08:33;28.83;;;11.63;;
20557;SDS011;10437;48.156;11.530;2023-02-08T12:11:11;27.07;;;11.53;;
20557;SDS011;10437;48.156;11.530;2023-02-08T12:13:48;28.90;;;12.73;;
20557;SDS011;10437;48.156;11.530;2023-02-08T12:16:21;30.73;;;12.50;;
20557;SDS011;10437;48.156;11.530;2023-02-08T12:19:17;30.63;;;12.50;;
20557;SDS011;10437;48.156;11.530;2023-02-08T12:21:47;27.50;;;12.73;;
20557;SDS011;10437;48.156;11.530;2023-02-08T12:24:20;26.07;;;11.73;;
20557;SDS011;10437;48.156;11.530;2023-02-08T12:27:00;29.67;;;13.07;;
20557;SDS011;10437;48.156;11.530;2023-02-08T12:29:39;30.03;;;12.67;;
20557;SDS011;10437;48.156;11.530;2023-02-08T12:32:13;32.40;;;13.73;;
20557;SDS011;10437;48.156;11.530;2023-02-08T12:34:46;32.17;;;13.37;;
20557;SDS011;10437;48.156;11.530;2023-02-08T12:37:25;34.77;;;13.60;;
20557;SDS011;10437;48.156;11.530;2023-02-08T12:40:21;34.23;;;12.97;;
20557;SDS011;10437;48.156;11.530;2023-02-08T12:43:29;30.60;;;12.57;;
20557;SDS011;10437;48.156;11.530;2023-02-08T12:46:05;28.83;;;13.40;;
20557;SDS011;10437;48.156;11.530;2023-02-08T12:51:32;27.83;;;13.10;;
20557;SDS011;10437;48.156;11.530;2023-02-08T12:54:07;28.53;;;12.67;;
20557;SDS011;10437;48.156;11.530;2023-02-08T12:56:37;31.17;;;13.20;;
20557;SDS011;10437;48.156;11.530;2023-02-08T12:59:10;32.40;;;12.73;;
20557;SDS011;10437;48.156;11.530;2023-02-08T13:01:42;28.10;;;12.87;;
20557;SDS011;10437;48.156;11.530;2023-02-08T13:04:12;32.40;;;12.77;;
20557;SDS011;10437;48.156;11.530;2023-02-08T13:06:45;31.23;;;13.00;;
20557;SDS011;10437;48.156;11.530;2023-02-08T13:09:14;30.77;;;12.20;;
20557;SDS011;10437;48.156;11.530;2023-02-08T13:11:46;26.03;;;12.03;;
20557;SDS011;10437;48.156;11.530;2023-02-08T13:14:22;29.10;;;12.90;;
20557;SDS011;10437;48.156;11.530;2023-02-08T13:16:58;31.47;;;12.80;;
20557;SDS011;10437;48.156;11.530;2023-02-08T13:19:32;31.63;;;12.53;;
20557;SDS011;10437;48.156;11.530;2023-02-08T13:22:06;29.03;;;12.53;;
20557;SDS011;10437;48.156;11.530;2023-02-08T13:24:34;31.87;;;12.67;;
20557;SDS011;10437;48.156;11.530;2023-02-08T13:27:03;27.77;;;12.47;;
20557;SDS011;10437;48.156;11.530;2023-02-08T13:29:34;27.83;;;12.37;;
20557;SDS011;10437;48.156;11.530;2023-02-08T13:32:02;25.87;;;11.37;;
20557;SDS011;10437;48.156;11.530;2023-02-08T13:34:33;25.63;;;12.00;;
20557;SDS011;10437;48.156;11.530;2023-02-08T13:37:02;27.17;;;12.50;;
20557;SDS011;10437;48.156;11.530;2023-02-08T13:39:33;27.50;;;12.50;;
20557;SDS011;10437;48.156;11.530;2023-02-08T13:42:01;32.20;;;12.23;;
20557;SDS011;10437;48.156;11.530;2023-02-08T13:44:31;27.97;;;12.00;;
20557;SDS011;10437;48.156;11.530;2023-02-08T13:47:01;23.03;;;10.70;;
20557;SDS011;10437;48.156;11.530;2023-02-08T14:01:27;33.97;;;11.73;;
20557;SDS011;10437;48.156;11.530;2023-02-08T14:07:03;27.37;;;12.20;;
20557;SDS011;10437;48.156;11.530;2023-02-08T14:09:39;25.00;;;10.63;;
20557;SDS011;10437;48.156;11.530;2023-02-08T14:12:16;26.83;;;10.90;;
20557;SDS011;10437;48.156;11.530;2023-02-08T14:15:15;22.17;;;10.90;;
20557;SDS011;10437;48.156;11.530;2023-02-08T14:17:53;26.97;;;11.63;;
20557;SDS011;10437;48.156;11.530;2023-02-08T14:20:25;26.40;;;11.10;;
20557;SDS011;10437;48.156;11.530;2023-02-08T14:22:56;30.47;;;11.10;;
20557;SDS011;10437;48.156;11.530;2023-02-08T14:25:24;27.83;;;11.23;;
20557;SDS011;10437;48.156;11.530;2023-02-08T14:27:55;24.83;;;11.27;;
20557;SDS011;10437;48.156;11.530;2023-02-08T14:30:24;26.53;;;10.80;;
20557;SDS011;10437;48.156;11.530;2023-02-08T14:32:53;22.37;;;9.77;;
20557;SDS011;10437;48.156;11.530;2023-02-08T14:35:39;24.67;;;10.27;;
20557;SDS011;10437;48.156;11.530;2023-02-08T14:41:17;26.53;;;12.30;;
20557;SDS011;10437;48.156;11.530;2023-02-08T14:47:06;24.23;;;10.67;;
20557;SDS011;10437;48.156;11.530;2023-02-08T14:49:38;23.10;;;10.53;;
20557;SDS011;10437;48.156;11.530;2023-02-08T14:52:08;24.03;;;9.13;;
20557;SDS011;10437;48.156;11.530;2023-02-08T14:54:37;24.53;;;9.57;;
20557;SDS011;10437;48.156;11.530;2023-02-08T14:57:14;21.23;;;8.57;;
20557;SDS011;10437;48.156;11.530;2023-02-08T14:59:48;22.50;;;9.73;;
20557;SDS011;10437;48.156;11.530;2023-02-08T15:02:18;19.33;;;8.80;;
20557;SDS011;10437;48.156;11.530;2023-02-08T15:04:48;26.80;;;9.73;;
20557;SDS011;10437;48.156;11.530;2023-02-08T15:07:18;19.27;;;9.17;;